KHOE

Homerville Airport

Homerville, Georgia, USA
METAR KHOE 191815Z AUTO 00000KT 10SM CLR 34/21 A2995 RMK AO2
Observed Flight Rules
Sep-19 @ 18:15 UTC (33 minutes ago) Visual Flight Rules
Visibility Clouds
10 miles
  • Clear skies
Temperatures Readings
Current 34°C / 93°F
Dewpoint 21°C / 70°F
Humidity 47%
Altimeter 29.95" Hg
Pressure 1014 hPa
Elevation 57
METAR KHOE 191815Z AUTO 00000KT 10SM CLR 34/21 A2995 RMK AO2
Observed Flight Rules
Sep-19 @ 18:15 UTC
(33 minutes ago)
VFR
Clouds
  • Clear skies
Temperature Dewpoint
34°C / 93°F 21°C / 70°F
Humidity Altimeter Pressure
47% 29.95" Hg 1014 hPa